createdAt,value
2019-03-13T00:01:04.681Z,8.83
2019-03-13T00:03:31.986Z,8.76
2019-03-13T00:05:59.029Z,8.72
2019-03-13T00:08:26.110Z,8.39
2019-03-13T00:10:53.974Z,6.74
2019-03-13T00:13:21.094Z,6.38
2019-03-13T00:15:49.945Z,6.31
2019-03-13T00:18:17.258Z,6.33
2019-03-13T00:20:44.292Z,6.41
2019-03-13T00:23:13.199Z,6.41
2019-03-13T00:25:40.656Z,6.60
2019-03-13T00:28:07.718Z,6.54
2019-03-13T00:30:35.255Z,6.57
2019-03-13T00:33:02.311Z,6.43
2019-03-13T00:35:29.467Z,6.41
2019-03-13T00:37:56.516Z,6.26
2019-03-13T00:40:23.630Z,6.51
2019-03-13T00:42:50.691Z,6.35
2019-03-13T00:45:17.741Z,6.32
2019-03-13T00:47:45.215Z,6.31
2019-03-13T00:50:22.176Z,6.21
2019-03-13T00:52:51.143Z,6.27
2019-03-13T00:55:18.179Z,6.33
2019-03-13T00:57:46.376Z,6.24
2019-03-13T01:00:16.721Z,6.12
2019-03-13T01:02:44.841Z,6.04
2019-03-13T01:05:22.014Z,5.99
2019-03-13T01:07:49.432Z,6.11
2019-03-13T01:10:16.453Z,6.12
2019-03-13T01:12:43.525Z,6.06
2019-03-13T01:15:11.081Z,5.95
2019-03-13T01:17:39.218Z,5.87
2019-03-13T01:20:07.080Z,5.82
2019-03-13T01:22:34.565Z,5.82
2019-03-13T01:25:01.649Z,5.83
2019-03-13T01:27:32.728Z,5.80
2019-03-13T01:29:59.776Z,5.69
2019-03-13T01:32:38.898Z,5.55
2019-03-13T01:35:12.877Z,5.50
2019-03-13T01:37:40.595Z,5.43
2019-03-13T01:40:09.344Z,5.38
2019-03-13T01:42:36.397Z,5.32
2019-03-13T01:45:04.304Z,5.23
2019-03-13T01:47:32.394Z,5.17
2019-03-13T01:49:59.870Z,5.06
2019-03-13T01:52:28.385Z,4.96
2019-03-13T01:54:55.467Z,4.95
2019-03-13T01:57:23.096Z,4.96
2019-03-13T01:59:50.133Z,4.96
2019-03-13T02:02:17.231Z,4.99
2019-03-13T02:04:44.336Z,4.89
2019-03-13T02:07:11.707Z,4.81
2019-03-13T02:09:38.823Z,4.87
2019-03-13T02:12:05.883Z,4.92
2019-03-13T02:14:33.319Z,4.89
2019-03-13T02:17:01.132Z,4.89
2019-03-13T02:19:28.170Z,5.04
2019-03-13T02:21:55.684Z,5.28
2019-03-13T02:24:22.771Z,5.34
2019-03-13T02:26:49.833Z,5.24
2019-03-13T02:29:17.646Z,5.14
2019-03-13T02:31:44.702Z,5.06
2019-03-13T02:34:13.531Z,4.97
2019-03-13T02:36:40.659Z,4.99
2019-03-13T02:39:07.740Z,4.98
2019-03-13T02:41:35.160Z,4.99
2019-03-13T02:44:02.652Z,5.06
2019-03-13T02:46:29.802Z,5.06
2019-03-13T02:48:56.857Z,5.02
2019-03-13T02:51:24.001Z,4.99
2019-03-13T02:53:51.060Z,4.93
2019-03-13T02:56:18.381Z,4.93
2019-03-13T02:58:45.947Z,4.86
2019-03-13T03:01:41.681Z,4.93
2019-03-13T03:04:10.116Z,4.93
2019-03-13T03:06:37.364Z,4.87
2019-03-13T03:09:07.207Z,4.82
2019-03-13T03:11:36.505Z,4.74
2019-03-13T03:14:03.782Z,4.76
2019-03-13T03:16:30.809Z,4.73
2019-03-13T03:18:57.846Z,4.73
2019-03-13T03:21:24.872Z,4.72
2019-03-13T03:23:52.208Z,4.81
2019-03-13T03:26:19.391Z,4.89
2019-03-13T03:28:46.463Z,4.90
2019-03-13T03:31:13.528Z,4.95
2019-03-13T03:33:40.577Z,4.93
2019-03-13T03:36:07.912Z,4.91
2019-03-13T03:38:35.118Z,4.94
2019-03-13T03:41:02.927Z,5.08
2019-03-13T03:43:39.964Z,5.21
2019-03-13T03:45:58.976Z,5.30
2019-03-13T03:48:26.039Z,5.24
2019-03-13T03:50:53.115Z,5.16
2019-03-13T03:53:20.143Z,5.13
2019-03-13T03:55:56.190Z,5.11
2019-03-13T03:58:24.105Z,5.13
2019-03-13T04:00:51.431Z,5.09
2019-03-13T04:03:18.468Z,5.08
2019-03-13T04:05:45.517Z,4.99
2019-03-13T04:08:13.317Z,5.06
2019-03-13T04:10:40.331Z,5.05
2019-03-13T04:13:07.431Z,5.00
2019-03-13T04:15:36.665Z,4.95
2019-03-13T04:18:05.563Z,4.93
2019-03-13T04:20:32.643Z,4.96
2019-03-13T04:23:00.226Z,4.95
2019-03-13T04:25:35.154Z,4.93
2019-03-13T04:28:02.538Z,5.06
2019-03-13T04:30:29.558Z,5.28
2019-03-13T04:32:56.624Z,5.64
2019-03-13T04:35:24.005Z,5.89
2019-03-13T04:37:51.037Z,6.03
2019-03-13T04:40:18.106Z,6.08
2019-03-13T04:42:45.153Z,6.17
2019-03-13T04:45:12.197Z,6.12
2019-03-13T04:47:41.047Z,5.98
2019-03-13T04:50:09.170Z,5.79
2019-03-13T04:52:36.201Z,5.57
2019-03-13T04:55:03.701Z,5.55
2019-03-13T04:57:31.432Z,5.50
2019-03-13T04:59:58.478Z,5.50
2019-03-13T05:02:25.516Z,5.28
2019-03-13T05:04:53.025Z,5.08
2019-03-13T05:07:20.073Z,4.96
2019-03-13T05:09:47.157Z,4.95
2019-03-13T05:12:14.544Z,4.94
2019-03-13T05:14:41.608Z,4.90
2019-03-13T05:17:09.854Z,4.93
2019-03-13T05:19:36.894Z,4.98
2019-03-13T05:22:03.966Z,5.06
2019-03-13T05:24:31.052Z,5.08
2019-03-13T05:26:59.253Z,5.07
2019-03-13T05:29:26.587Z,5.10
2019-03-13T05:31:53.687Z,5.15
2019-03-13T05:34:22.527Z,5.16
2019-03-13T05:36:49.554Z,5.18
2019-03-13T05:39:17.092Z,5.25
2019-03-13T05:41:44.171Z,5.27
2019-03-13T05:44:11.206Z,5.27
2019-03-13T05:46:38.320Z,5.33
2019-03-13T05:49:05.372Z,5.38
2019-03-13T05:51:33.619Z,5.42
2019-03-13T05:54:00.762Z,5.43
2019-03-13T05:56:27.769Z,5.50
2019-03-13T05:58:54.920Z,5.52
2019-03-13T06:01:24.242Z,5.62
2019-03-13T06:03:51.339Z,5.70
2019-03-13T06:06:18.349Z,5.77
2019-03-13T06:08:45.569Z,5.81
2019-03-13T06:11:12.593Z,5.96
2019-03-13T06:13:39.631Z,6.03
2019-03-13T06:16:07.061Z,6.00
2019-03-13T06:18:35.483Z,6.06
2019-03-13T06:21:02.518Z,6.12
2019-03-13T06:23:29.598Z,6.24
2019-03-13T06:25:56.683Z,6.40
2019-03-13T06:28:24.837Z,6.58
2019-03-13T06:30:52.337Z,6.68
2019-03-13T06:33:19.392Z,6.66
2019-03-13T06:35:46.423Z,6.51
2019-03-13T06:38:13.887Z,6.21
2019-03-13T06:40:40.951Z,6.16
2019-03-13T06:43:07.999Z,6.06
2019-03-13T06:45:35.573Z,6.01
2019-03-13T06:48:02.594Z,5.57
2019-03-13T06:50:29.656Z,5.26
2019-03-13T06:52:57.119Z,5.26
2019-03-13T06:55:24.362Z,5.41
2019-03-13T06:57:51.443Z,5.58
2019-03-13T07:00:41.500Z,5.68
2019-03-13T07:03:17.706Z,5.69
2019-03-13T07:05:54.801Z,5.66
2019-03-13T07:08:32.248Z,5.90
2019-03-13T07:11:14.821Z,6.54
2019-03-13T07:13:58.245Z,7.44
2019-03-13T07:16:43.266Z,7.92
2019-03-13T07:19:39.094Z,7.87
2019-03-13T07:22:29.120Z,7.72
2019-03-13T07:25:16.698Z,7.18
2019-03-13T07:28:17.785Z,7.48
2019-03-13T07:31:02.939Z,7.57
2019-03-13T07:33:44.821Z,7.64
2019-03-13T07:36:22.938Z,7.78
2019-03-13T07:39:09.646Z,7.88
2019-03-13T07:41:47.697Z,7.88
2019-03-13T07:44:32.912Z,8.27
2019-03-13T07:47:18.431Z,8.98
2019-03-13T07:49:58.263Z,8.65
2019-03-13T07:52:45.866Z,8.51
2019-03-13T07:55:35.054Z,8.46
2019-03-13T07:58:24.957Z,8.39
2019-03-13T08:01:15.242Z,8.45
2019-03-13T08:04:00.820Z,8.61
2019-03-13T08:06:35.614Z,8.49
2019-03-13T08:09:25.359Z,8.48
2019-03-13T08:12:07.278Z,8.41
2019-03-13T08:14:50.969Z,8.73
2019-03-13T08:17:53.180Z,8.69
2019-03-13T08:20:46.440Z,8.81
2019-03-13T08:23:45.748Z,8.83
2019-03-13T08:33:54.653Z,10.52
2019-03-13T08:37:01.161Z,9.54
2019-03-13T08:39:46.759Z,9.22
2019-03-13T08:43:08.157Z,9.44
2019-03-13T08:46:15.843Z,9.66
2019-03-13T08:48:57.580Z,9.94
2019-03-13T08:51:37.678Z,10.54
2019-03-13T08:54:16.785Z,10.06
2019-03-13T08:57:04.010Z,9.10
2019-03-13T09:00:02.003Z,9.26
2019-03-13T09:02:59.035Z,8.68
2019-03-13T09:05:46.095Z,8.72
2019-03-13T09:08:33.323Z,8.93
2019-03-13T09:11:20.113Z,8.70
2019-03-13T09:14:16.651Z,9.00
2019-03-13T09:17:15.420Z,9.53
2019-03-13T09:20:21.751Z,9.21
2019-03-13T09:23:11.548Z,9.59
2019-03-13T09:25:56.439Z,9.42
2019-03-13T09:28:43.926Z,9.74
2019-03-13T09:31:25.609Z,9.36
2019-03-13T09:34:08.700Z,8.75
2019-03-13T09:36:51.736Z,8.87
2019-03-13T09:39:28.569Z,9.04
2019-03-13T09:42:07.724Z,8.85
2019-03-13T09:44:57.083Z,9.06
2019-03-13T09:47:35.519Z,9.07
2019-03-13T09:50:29.053Z,8.94
2019-03-13T09:53:07.850Z,9.19
2019-03-13T09:56:00.636Z,9.50
2019-03-13T09:58:50.340Z,9.78
2019-03-13T10:01:49.109Z,9.30
2019-03-13T10:04:32.221Z,9.30
2019-03-13T10:07:35.659Z,9.33
2019-03-13T10:10:29.073Z,9.67
2019-03-13T10:13:17.708Z,9.68
2019-03-13T10:16:13.903Z,9.49
2019-03-13T10:19:09.624Z,10.02
2019-03-13T10:21:55.680Z,9.88
2019-03-13T10:24:41.347Z,10.16
2019-03-13T10:27:26.786Z,10.22
2019-03-13T10:30:11.122Z,10.26
2019-03-13T10:32:56.890Z,10.22
2019-03-13T10:35:32.103Z,10.82
2019-03-13T10:38:17.819Z,10.59
2019-03-13T10:40:54.357Z,10.69
2019-03-13T10:43:46.723Z,11.38
2019-03-13T10:46:32.188Z,11.50
2019-03-13T10:49:17.168Z,11.33
2019-03-13T10:51:56.022Z,11.57
2019-03-13T10:54:31.673Z,10.81
2019-03-13T10:57:18.354Z,11.17
2019-03-13T11:00:07.841Z,12.10
2019-03-13T11:02:53.886Z,11.89
2019-03-13T11:05:34.587Z,12.28
2019-03-13T11:08:24.254Z,12.32
2019-03-13T11:11:11.707Z,13.75
2019-03-13T11:14:15.674Z,13.58
2019-03-13T11:17:02.624Z,12.84
2019-03-13T11:19:58.521Z,12.61
2019-03-13T11:22:36.689Z,11.35
2019-03-13T11:25:30.244Z,11.30
2019-03-13T11:28:05.234Z,11.51
2019-03-13T11:30:58.290Z,11.39
2019-03-13T11:33:35.264Z,11.12
2019-03-13T11:36:08.763Z,10.99
2019-03-13T11:38:55.541Z,11.24
2019-03-13T11:41:45.657Z,10.81
2019-03-13T11:44:35.108Z,10.93
2019-03-13T11:47:42.203Z,10.56
2019-03-13T11:50:36.664Z,9.98
2019-03-13T11:53:32.128Z,10.53
2019-03-13T11:56:11.811Z,10.48
2019-03-13T11:58:58.508Z,10.91
2019-03-13T12:01:48.189Z,10.70
2019-03-13T12:04:28.952Z,10.82
2019-03-13T12:07:22.028Z,10.93
2019-03-13T12:09:57.152Z,11.01
2019-03-13T12:12:55.896Z,10.46
2019-03-13T12:15:35.942Z,10.75
2019-03-13T12:18:17.623Z,10.85
2019-03-13T12:21:00.706Z,10.38
2019-03-13T12:23:51.343Z,10.54
2019-03-13T12:26:25.280Z,10.31
2019-03-13T12:29:09.467Z,10.33
2019-03-13T12:31:59.216Z,10.57
2019-03-13T12:34:44.560Z,10.70
2019-03-13T12:37:34.455Z,10.80
2019-03-13T12:40:19.749Z,10.69
2019-03-13T12:43:15.885Z,11.27
2019-03-13T12:46:18.883Z,10.83
2019-03-13T12:49:08.766Z,10.58
2019-03-13T12:51:54.361Z,10.43
2019-03-13T12:54:45.075Z,10.39
2019-03-13T12:57:30.440Z,10.15
2019-03-13T13:00:32.451Z,10.20
2019-03-13T13:03:18.331Z,10.44
2019-03-13T13:05:58.272Z,10.69
2019-03-13T13:08:54.102Z,10.08
2019-03-13T13:11:39.771Z,9.71
2019-03-13T13:14:14.581Z,9.66
2019-03-13T13:16:59.807Z,9.71
2019-03-13T13:19:26.903Z,9.70
2019-03-13T13:21:54.168Z,9.62
2019-03-13T13:24:21.324Z,9.48
2019-03-13T13:26:50.211Z,9.61
2019-03-13T13:29:17.595Z,9.63
2019-03-13T13:31:44.683Z,9.36
2019-03-13T13:34:12.442Z,9.64
2019-03-13T13:36:39.624Z,9.80
2019-03-13T13:39:08.125Z,9.92
2019-03-13T13:41:40.619Z,9.84
2019-03-13T13:44:08.106Z,9.94
2019-03-13T13:46:38.235Z,10.05
2019-03-13T13:49:06.502Z,9.97
2019-03-13T13:51:38.382Z,10.29
2019-03-13T13:54:05.663Z,10.45
2019-03-13T13:56:33.102Z,9.83
2019-03-13T13:59:01.704Z,9.78
2019-03-13T14:01:29.696Z,9.66
2019-03-13T14:03:58.097Z,9.24
2019-03-13T14:06:25.392Z,9.24
2019-03-13T14:08:52.587Z,9.55
2019-03-13T14:11:21.191Z,9.68
2019-03-13T14:13:48.711Z,9.77
2019-03-13T14:16:15.946Z,9.89
2019-03-13T14:18:43.762Z,9.89
2019-03-13T14:21:12.070Z,9.83
2019-03-13T14:23:39.402Z,9.75
2019-03-13T14:26:08.076Z,9.52
2019-03-13T14:28:36.390Z,9.46
2019-03-13T14:31:04.148Z,9.29
2019-03-13T14:33:31.705Z,9.34
2019-03-13T14:35:58.816Z,9.25
2019-03-13T14:38:25.871Z,8.94
2019-03-13T14:40:53.866Z,8.81
2019-03-13T14:43:21.013Z,8.65
2019-03-13T14:45:52.123Z,8.74
2019-03-13T14:48:21.745Z,8.88
2019-03-13T14:50:48.881Z,8.94
2019-03-13T14:53:16.003Z,8.94
2019-03-13T14:55:43.202Z,9.20
2019-03-13T14:58:10.226Z,9.24
2019-03-13T15:00:37.937Z,9.31
2019-03-13T15:03:05.042Z,9.36
2019-03-13T15:05:32.105Z,9.17
2019-03-13T15:07:59.622Z,9.07
2019-03-13T15:10:29.555Z,9.24
2019-03-13T15:12:56.626Z,9.41
2019-03-13T15:15:23.732Z,9.46
2019-03-13T15:17:53.754Z,9.58
2019-03-13T15:20:23.549Z,9.55
2019-03-13T15:22:55.979Z,9.32
2019-03-13T15:25:28.607Z,9.32
2019-03-13T15:27:58.086Z,9.39
2019-03-13T15:30:25.753Z,9.37
2019-03-13T15:32:58.345Z,9.42
2019-03-13T15:35:25.781Z,9.27
2019-03-13T15:37:52.943Z,9.19
2019-03-13T15:40:20.235Z,9.23
2019-03-13T15:42:48.376Z,9.15
2019-03-13T15:45:16.900Z,8.91
2019-03-13T15:47:43.970Z,9.02
2019-03-13T15:50:12.548Z,9.13
2019-03-13T15:52:39.708Z,9.14
2019-03-13T15:55:08.002Z,9.21
2019-03-13T15:57:35.137Z,9.27
2019-03-13T16:00:05.559Z,9.10
2019-03-13T16:02:33.923Z,9.06
2019-03-13T16:05:01.839Z,9.04
2019-03-13T16:07:29.024Z,9.06
2019-03-13T16:09:57.081Z,8.92
2019-03-13T16:12:24.249Z,8.81
2019-03-13T16:14:51.313Z,8.37
2019-03-13T16:17:18.403Z,8.19
2019-03-13T16:19:46.070Z,8.15
2019-03-13T16:22:14.193Z,8.12
2019-03-13T16:24:41.399Z,8.18
2019-03-13T16:27:08.663Z,8.25
2019-03-13T16:29:35.708Z,8.31
2019-03-13T16:32:02.968Z,8.34
2019-03-13T16:34:30.438Z,8.37
2019-03-13T16:36:57.587Z,8.47
2019-03-13T16:39:24.669Z,8.44
2019-03-13T16:41:52.006Z,8.51
2019-03-13T16:44:20.237Z,8.54
2019-03-13T16:46:47.317Z,8.66
2019-03-13T16:49:15.013Z,8.80
2019-03-13T16:51:42.059Z,8.80
2019-03-13T16:54:09.418Z,8.74
2019-03-13T16:56:37.188Z,8.75
2019-03-13T16:59:04.261Z,8.78
2019-03-13T17:01:31.861Z,8.84
2019-03-13T17:03:59.265Z,8.80
2019-03-13T17:06:26.316Z,8.80
2019-03-13T17:08:53.438Z,8.83
2019-03-13T17:11:20.952Z,8.78
2019-03-13T17:13:48.289Z,8.67
2019-03-13T17:16:15.534Z,8.62
2019-03-13T17:18:42.877Z,8.70
2019-03-13T17:21:10.155Z,8.64
2019-03-13T17:23:39.460Z,8.62
2019-03-13T17:26:06.829Z,8.59
2019-03-13T17:28:34.069Z,8.49
2019-03-13T17:31:01.228Z,8.54
2019-03-13T17:33:28.907Z,8.63
2019-03-13T17:35:56.053Z,8.58
2019-03-13T17:38:23.170Z,8.53
2019-03-13T17:40:50.158Z,8.52
2019-03-13T17:43:17.174Z,8.42
2019-03-13T17:45:44.159Z,8.30
2019-03-13T17:48:11.549Z,8.23
2019-03-13T17:50:38.612Z,8.12
2019-03-13T17:53:05.577Z,8.16
2019-03-13T17:55:32.619Z,8.29
2019-03-13T17:57:59.632Z,8.26
2019-03-13T18:00:29.702Z,8.37
2019-03-13T18:02:56.751Z,8.38
2019-03-13T18:05:23.985Z,8.48
2019-03-13T18:07:51.000Z,8.46
2019-03-13T18:10:17.989Z,8.56
2019-03-13T18:12:44.963Z,8.51
2019-03-13T18:15:13.766Z,8.32
2019-03-13T18:17:42.788Z,8.32
2019-03-13T18:20:11.974Z,8.24
2019-03-13T18:22:38.976Z,8.12
2019-03-13T18:25:06.317Z,7.94
2019-03-13T18:27:33.990Z,7.85
2019-03-13T18:30:08.091Z,7.86
2019-03-13T18:32:41.653Z,7.75
2019-03-13T18:35:04.479Z,7.52
2019-03-13T18:37:31.707Z,7.33
2019-03-13T18:40:00.579Z,7.23
2019-03-13T18:42:27.975Z,7.08
2019-03-13T18:44:54.961Z,7.09
2019-03-13T18:47:21.946Z,7.07
2019-03-13T18:49:48.915Z,7.07
2019-03-13T18:52:15.958Z,6.98
2019-03-13T18:54:42.855Z,6.99
2019-03-13T18:57:12.850Z,6.95
2019-03-13T18:59:39.849Z,6.97
2019-03-13T19:02:06.819Z,6.94
2019-03-13T19:04:33.785Z,6.99
2019-03-13T19:07:00.809Z,6.92
2019-03-13T19:09:29.256Z,6.82
2019-03-13T19:11:56.753Z,6.54
2019-03-13T19:14:23.835Z,6.31
2019-03-13T19:16:50.785Z,6.24
2019-03-13T19:19:17.738Z,6.16
2019-03-13T19:21:44.772Z,6.10
2019-03-13T19:24:12.026Z,6.16
2019-03-13T19:26:38.974Z,6.14
2019-03-13T19:29:06.400Z,5.80
2019-03-13T19:31:33.409Z,5.83
2019-03-13T19:34:00.407Z,5.93
2019-03-13T19:36:27.374Z,5.97
2019-03-13T19:38:54.347Z,5.77
2019-03-13T19:41:21.295Z,5.69
2019-03-13T19:43:48.287Z,5.73
2019-03-13T19:46:15.246Z,5.71
2019-03-13T19:48:42.536Z,5.87
2019-03-13T19:51:09.542Z,5.90
2019-03-13T19:53:36.505Z,5.83
2019-03-13T19:56:03.493Z,5.84
2019-03-13T19:58:30.856Z,5.91
2019-03-13T20:00:57.825Z,6.00
2019-03-13T20:03:25.446Z,6.00
2019-03-13T20:05:52.449Z,6.01
2019-03-13T20:08:19.719Z,5.90
2019-03-13T20:10:48.369Z,5.93
2019-03-13T20:13:15.486Z,5.88
2019-03-13T20:15:42.438Z,5.76
2019-03-13T20:18:09.399Z,5.74
2019-03-13T20:20:36.746Z,5.63
2019-03-13T20:23:03.820Z,5.54
2019-03-13T20:25:32.176Z,5.48
2019-03-13T20:27:59.709Z,5.47
2019-03-13T20:30:27.972Z,5.47
2019-03-13T20:32:54.913Z,5.44
2019-03-13T20:35:21.930Z,5.43
2019-03-13T20:37:49.053Z,5.36
2019-03-13T20:40:18.043Z,5.29
2019-03-13T20:42:45.420Z,5.30
2019-03-13T20:45:14.422Z,5.31
2019-03-13T20:47:41.846Z,5.36
2019-03-13T20:50:08.990Z,5.40
2019-03-13T20:52:36.166Z,5.32
2019-03-13T20:55:04.996Z,5.33
2019-03-13T20:57:31.988Z,5.30
2019-03-13T20:59:58.952Z,5.35
2019-03-13T21:02:26.244Z,5.41
2019-03-13T21:04:53.387Z,5.48
2019-03-13T21:07:23.767Z,5.43
2019-03-13T21:09:51.241Z,5.49
2019-03-13T21:12:18.452Z,5.57
2019-03-13T21:14:47.332Z,5.49
2019-03-13T21:17:14.391Z,5.57
2019-03-13T21:19:41.422Z,5.70
2019-03-13T21:22:08.616Z,5.81
2019-03-13T21:24:35.944Z,5.82
2019-03-13T21:27:03.054Z,5.76
2019-03-13T21:29:30.146Z,5.65
2019-03-13T21:31:57.111Z,5.65
2019-03-13T21:34:24.117Z,5.67
2019-03-13T21:36:52.449Z,5.69
2019-03-13T21:39:19.464Z,5.67
2019-03-13T21:41:46.556Z,5.90
2019-03-13T21:44:13.531Z,5.90
2019-03-13T21:46:40.647Z,5.99
2019-03-13T21:49:08.688Z,5.99
2019-03-13T21:51:35.716Z,5.82
2019-03-13T21:54:02.749Z,5.82
2019-03-13T21:56:30.068Z,5.86
2019-03-13T21:58:57.127Z,5.96
2019-03-13T22:01:24.073Z,5.91
2019-03-13T22:03:51.083Z,5.81
2019-03-13T22:06:28.159Z,5.90
2019-03-13T22:08:46.923Z,5.74
2019-03-13T22:11:14.358Z,5.93
2019-03-13T22:13:41.438Z,5.97
2019-03-13T22:16:08.502Z,5.76
2019-03-13T22:18:35.497Z,5.79
2019-03-13T22:21:02.451Z,5.84
2019-03-13T22:23:29.428Z,5.89
2019-03-13T22:25:56.445Z,5.86
2019-03-13T22:28:23.431Z,5.77
2019-03-13T22:30:50.419Z,5.63
2019-03-13T22:33:18.601Z,5.55
2019-03-13T22:35:45.550Z,5.47
2019-03-13T22:38:12.907Z,5.29
2019-03-13T22:40:39.905Z,5.14
2019-03-13T22:43:06.913Z,5.10
2019-03-13T22:45:33.916Z,5.14
2019-03-13T22:48:00.904Z,5.22
2019-03-13T22:50:27.881Z,5.37
2019-03-13T22:52:56.502Z,5.46
2019-03-13T22:55:23.498Z,5.60
2019-03-13T22:57:50.459Z,5.57
2019-03-13T23:00:52.842Z,5.41
2019-03-13T23:03:22.617Z,5.29
2019-03-13T23:05:50.156Z,5.25
2019-03-13T23:08:17.683Z,5.27
2019-03-13T23:10:46.473Z,5.22
2019-03-13T23:13:17.212Z,5.16
2019-03-13T23:15:43.857Z,5.11
2019-03-13T23:18:10.800Z,5.02
2019-03-13T23:20:38.198Z,5.00
2019-03-13T23:23:05.209Z,5.07
2019-03-13T23:25:32.174Z,4.96
2019-03-13T23:27:59.359Z,4.81
2019-03-13T23:30:26.358Z,4.77
2019-03-13T23:32:53.354Z,4.62
2019-03-13T23:35:20.797Z,4.35
2019-03-13T23:37:47.774Z,4.33
2019-03-13T23:40:15.252Z,4.28
2019-03-13T23:42:42.205Z,4.12
2019-03-13T23:45:10.001Z,4.02
2019-03-13T23:47:37.025Z,4.11
2019-03-13T23:50:04.780Z,4.10
2019-03-13T23:52:31.913Z,4.10
2019-03-13T23:54:58.877Z,4.25
2019-03-13T23:57:25.855Z,4.24
2019-03-13T23:59:52.838Z,4.42
